sensor_id;sensor_type;location;lat;lon;timestamp;P1;durP1;ratioP1;P2;durP2;ratioP2
66970;SDS011;53901;51.466;-2.588;2023-11-21T00:01:01;5.65;;;1.10;;
66970;SDS011;53901;51.466;-2.588;2023-11-21T00:03:28;5.10;;;1.33;;
66970;SDS011;53901;51.466;-2.588;2023-11-21T00:05:54;4.63;;;1.10;;
66970;SDS011;53901;51.466;-2.588;2023-11-21T00:08:20;4.13;;;1.10;;
66970;SDS011;53901;51.466;-2.588;2023-11-21T00:10:45;4.63;;;1.00;;
66970;SDS011;53901;51.466;-2.588;2023-11-21T00:13:10;8.10;;;1.20;;
66970;SDS011;53901;51.466;-2.588;2023-11-21T00:15:37;2.13;;;1.10;;
66970;SDS011;53901;51.466;-2.588;2023-11-21T00:18:03;3.20;;;0.98;;
66970;SDS011;53901;51.466;-2.588;2023-11-21T00:20:28;2.67;;;0.80;;
66970;SDS011;53901;51.466;-2.588;2023-11-21T00:22:53;5.25;;;0.82;;
66970;SDS011;53901;51.466;-2.588;2023-11-21T00:25:19;4.00;;;0.80;;
66970;SDS011;53901;51.466;-2.588;2023-11-21T00:27:45;2.58;;;0.80;;
66970;SDS011;53901;51.466;-2.588;2023-11-21T00:30:10;2.85;;;0.95;;
66970;SDS011;53901;51.466;-2.588;2023-11-21T00:32:36;3.05;;;0.82;;
66970;SDS011;53901;51.466;-2.588;2023-11-21T00:35:02;7.25;;;0.90;;
66970;SDS011;53901;51.466;-2.588;2023-11-21T00:37:28;5.72;;;1.00;;
66970;SDS011;53901;51.466;-2.588;2023-11-21T00:39:53;7.57;;;1.00;;
66970;SDS011;53901;51.466;-2.588;2023-11-21T00:42:18;5.20;;;0.80;;
66970;SDS011;53901;51.466;-2.588;2023-11-21T00:44:44;3.85;;;1.10;;
66970;SDS011;53901;51.466;-2.588;2023-11-21T00:47:09;2.42;;;0.80;;
66970;SDS011;53901;51.466;-2.588;2023-11-21T00:49:35;2.30;;;0.70;;
66970;SDS011;53901;51.466;-2.588;2023-11-21T00:52:00;4.32;;;0.80;;
66970;SDS011;53901;51.466;-2.588;2023-11-21T00:54:26;1.98;;;0.73;;
66970;SDS011;53901;51.466;-2.588;2023-11-21T00:56:52;1.92;;;0.80;;
66970;SDS011;53901;51.466;-2.588;2023-11-21T00:59:17;4.07;;;0.90;;
66970;SDS011;53901;51.466;-2.588;2023-11-21T01:01:43;6.05;;;1.00;;
66970;SDS011;53901;51.466;-2.588;2023-11-21T01:04:09;4.60;;;0.90;;
66970;SDS011;53901;51.466;-2.588;2023-11-21T01:06:34;3.38;;;0.90;;
66970;SDS011;53901;51.466;-2.588;2023-11-21T01:08:59;2.70;;;1.00;;
66970;SDS011;53901;51.466;-2.588;2023-11-21T01:11:25;4.00;;;1.05;;
66970;SDS011;53901;51.466;-2.588;2023-11-21T01:13:51;3.03;;;0.90;;
66970;SDS011;53901;51.466;-2.588;2023-11-21T01:16:17;5.70;;;0.88;;
66970;SDS011;53901;51.466;-2.588;2023-11-21T01:18:42;4.80;;;0.80;;
66970;SDS011;53901;51.466;-2.588;2023-11-21T01:21:08;3.30;;;0.93;;
66970;SDS011;53901;51.466;-2.588;2023-11-21T01:23:34;3.35;;;1.00;;
66970;SDS011;53901;51.466;-2.588;2023-11-21T01:26:00;4.15;;;1.13;;
66970;SDS011;53901;51.466;-2.588;2023-11-21T01:28:25;5.82;;;0.98;;
66970;SDS011;53901;51.466;-2.588;2023-11-21T01:30:51;7.18;;;1.30;;
66970;SDS011;53901;51.466;-2.588;2023-11-21T01:33:17;4.97;;;0.90;;
66970;SDS011;53901;51.466;-2.588;2023-11-21T01:35:42;4.38;;;1.30;;
66970;SDS011;53901;51.466;-2.588;2023-11-21T01:38:08;8.52;;;1.17;;
66970;SDS011;53901;51.466;-2.588;2023-11-21T01:40:33;5.30;;;1.00;;
66970;SDS011;53901;51.466;-2.588;2023-11-21T01:42:59;6.07;;;1.05;;
66970;SDS011;53901;51.466;-2.588;2023-11-21T01:45:25;2.75;;;0.85;;
66970;SDS011;53901;51.466;-2.588;2023-11-21T01:47:50;4.05;;;1.45;;
66970;SDS011;53901;51.466;-2.588;2023-11-21T01:50:16;4.60;;;1.23;;
66970;SDS011;53901;51.466;-2.588;2023-11-21T01:52:43;5.07;;;1.23;;
66970;SDS011;53901;51.466;-2.588;2023-11-21T01:55:10;3.80;;;1.55;;
66970;SDS011;53901;51.466;-2.588;2023-11-21T01:57:37;2.35;;;0.90;;
66970;SDS011;53901;51.466;-2.588;2023-11-21T02:00:03;5.70;;;1.23;;
66970;SDS011;53901;51.466;-2.588;2023-11-21T02:02:49;4.15;;;1.00;;
66970;SDS011;53901;51.466;-2.588;2023-11-21T02:05:15;3.95;;;0.95;;
66970;SDS011;53901;51.466;-2.588;2023-11-21T02:07:43;5.82;;;1.10;;
66970;SDS011;53901;51.466;-2.588;2023-11-21T02:10:09;5.45;;;1.02;;
66970;SDS011;53901;51.466;-2.588;2023-11-21T02:12:35;2.55;;;0.98;;
66970;SDS011;53901;51.466;-2.588;2023-11-21T02:15:03;4.97;;;0.90;;
66970;SDS011;53901;51.466;-2.588;2023-11-21T02:17:34;3.90;;;1.05;;
66970;SDS011;53901;51.466;-2.588;2023-11-21T02:20:00;5.15;;;1.25;;
66970;SDS011;53901;51.466;-2.588;2023-11-21T02:22:26;7.00;;;1.25;;
66970;SDS011;53901;51.466;-2.588;2023-11-21T02:24:55;3.38;;;0.93;;
66970;SDS011;53901;51.466;-2.588;2023-11-21T02:27:22;4.15;;;1.00;;
66970;SDS011;53901;51.466;-2.588;2023-11-21T02:29:48;2.72;;;1.10;;
66970;SDS011;53901;51.466;-2.588;2023-11-21T02:32:14;3.40;;;1.10;;
66970;SDS011;53901;51.466;-2.588;2023-11-21T02:34:39;3.60;;;1.20;;
66970;SDS011;53901;51.466;-2.588;2023-11-21T02:37:05;2.55;;;1.02;;
66970;SDS011;53901;51.466;-2.588;2023-11-21T02:39:31;2.42;;;1.08;;
66970;SDS011;53901;51.466;-2.588;2023-11-21T02:41:57;2.28;;;1.13;;
66970;SDS011;53901;51.466;-2.588;2023-11-21T02:44:22;4.97;;;1.00;;
66970;SDS011;53901;51.466;-2.588;2023-11-21T02:46:47;1.63;;;1.00;;
66970;SDS011;53901;51.466;-2.588;2023-11-21T02:49:13;7.93;;;1.30;;
66970;SDS011;53901;51.466;-2.588;2023-11-21T02:51:38;2.15;;;1.20;;
66970;SDS011;53901;51.466;-2.588;2023-11-21T02:54:04;4.43;;;1.20;;
66970;SDS011;53901;51.466;-2.588;2023-11-21T02:56:32;2.80;;;1.20;;
66970;SDS011;53901;51.466;-2.588;2023-11-21T02:58:59;2.05;;;1.20;;
66970;SDS011;53901;51.466;-2.588;2023-11-21T03:01:24;4.65;;;1.55;;
66970;SDS011;53901;51.466;-2.588;2023-11-21T03:03:50;3.33;;;1.30;;
66970;SDS011;53901;51.466;-2.588;2023-11-21T03:06:18;3.85;;;1.50;;
66970;SDS011;53901;51.466;-2.588;2023-11-21T03:08:44;6.95;;;1.90;;
66970;SDS011;53901;51.466;-2.588;2023-11-21T03:11:09;3.75;;;1.50;;
66970;SDS011;53901;51.466;-2.588;2023-11-21T03:13:35;4.50;;;1.75;;
66970;SDS011;53901;51.466;-2.588;2023-11-21T03:16:00;2.70;;;1.60;;
66970;SDS011;53901;51.466;-2.588;2023-11-21T03:18:25;3.80;;;1.90;;
66970;SDS011;53901;51.466;-2.588;2023-11-21T03:20:54;6.25;;;1.98;;
66970;SDS011;53901;51.466;-2.588;2023-11-21T03:23:19;4.50;;;2.33;;
66970;SDS011;53901;51.466;-2.588;2023-11-21T03:25:45;4.25;;;2.40;;
66970;SDS011;53901;51.466;-2.588;2023-11-21T03:28:10;5.18;;;2.40;;
66970;SDS011;53901;51.466;-2.588;2023-11-21T03:30:36;7.05;;;3.05;;
66970;SDS011;53901;51.466;-2.588;2023-11-21T03:33:01;5.70;;;2.75;;
66970;SDS011;53901;51.466;-2.588;2023-11-21T03:35:26;5.10;;;3.10;;
66970;SDS011;53901;51.466;-2.588;2023-11-21T03:37:53;5.28;;;3.58;;
66970;SDS011;53901;51.466;-2.588;2023-11-21T03:40:18;5.78;;;3.63;;
66970;SDS011;53901;51.466;-2.588;2023-11-21T03:42:43;7.75;;;3.35;;
66970;SDS011;53901;51.466;-2.588;2023-11-21T03:45:09;6.68;;;3.85;;
66970;SDS011;53901;51.466;-2.588;2023-11-21T03:47:34;8.55;;;4.45;;
66970;SDS011;53901;51.466;-2.588;2023-11-21T03:50:00;6.68;;;4.97;;
66970;SDS011;53901;51.466;-2.588;2023-11-21T03:52:25;7.82;;;5.57;;
66970;SDS011;53901;51.466;-2.588;2023-11-21T03:54:52;7.10;;;5.07;;
66970;SDS011;53901;51.466;-2.588;2023-11-21T03:57:17;7.05;;;4.60;;
66970;SDS011;53901;51.466;-2.588;2023-11-21T03:59:42;6.60;;;4.70;;
66970;SDS011;53901;51.466;-2.588;2023-11-21T04:02:08;6.20;;;4.68;;
66970;SDS011;53901;51.466;-2.588;2023-11-21T04:04:35;9.50;;;4.65;;
66970;SDS011;53901;51.466;-2.588;2023-11-21T04:07:01;6.97;;;4.80;;
66970;SDS011;53901;51.466;-2.588;2023-11-21T04:09:26;6.75;;;4.38;;
66970;SDS011;53901;51.466;-2.588;2023-11-21T04:11:52;5.18;;;4.35;;
66970;SDS011;53901;51.466;-2.588;2023-11-21T04:14:18;6.60;;;4.63;;
66970;SDS011;53901;51.466;-2.588;2023-11-21T04:16:43;7.68;;;4.90;;
66970;SDS011;53901;51.466;-2.588;2023-11-21T04:19:09;5.45;;;4.70;;
66970;SDS011;53901;51.466;-2.588;2023-11-21T04:21:35;5.03;;;4.15;;
66970;SDS011;53901;51.466;-2.588;2023-11-21T04:24:01;6.03;;;4.15;;
66970;SDS011;53901;51.466;-2.588;2023-11-21T04:26:26;5.18;;;3.85;;
66970;SDS011;53901;51.466;-2.588;2023-11-21T04:28:52;5.13;;;3.78;;
66970;SDS011;53901;51.466;-2.588;2023-11-21T04:31:17;4.28;;;3.33;;
66970;SDS011;53901;51.466;-2.588;2023-11-21T04:33:42;3.72;;;3.00;;
66970;SDS011;53901;51.466;-2.588;2023-11-21T04:36:08;3.40;;;2.70;;
66970;SDS011;53901;51.466;-2.588;2023-11-21T04:38:33;6.78;;;2.90;;
66970;SDS011;53901;51.466;-2.588;2023-11-21T04:40:59;4.47;;;2.40;;
66970;SDS011;53901;51.466;-2.588;2023-11-21T04:43:24;2.00;;;1.80;;
66970;SDS011;53901;51.466;-2.588;2023-11-21T04:45:51;2.40;;;1.83;;
66970;SDS011;53901;51.466;-2.588;2023-11-21T04:48:16;3.15;;;1.90;;
66970;SDS011;53901;51.466;-2.588;2023-11-21T04:50:42;2.20;;;1.90;;
66970;SDS011;53901;51.466;-2.588;2023-11-21T04:53:07;2.33;;;1.60;;
66970;SDS011;53901;51.466;-2.588;2023-11-21T04:55:32;3.60;;;1.80;;
66970;SDS011;53901;51.466;-2.588;2023-11-21T04:57:57;2.30;;;1.70;;
66970;SDS011;53901;51.466;-2.588;2023-11-21T05:00:23;3.42;;;1.60;;
66970;SDS011;53901;51.466;-2.588;2023-11-21T05:02:48;3.15;;;1.48;;
66970;SDS011;53901;51.466;-2.588;2023-11-21T05:05:14;3.40;;;1.70;;
66970;SDS011;53901;51.466;-2.588;2023-11-21T05:07:39;1.60;;;1.40;;
66970;SDS011;53901;51.466;-2.588;2023-11-21T05:10:06;1.52;;;1.30;;
66970;SDS011;53901;51.466;-2.588;2023-11-21T05:12:39;1.30;;;1.20;;
66970;SDS011;53901;51.466;-2.588;2023-11-21T05:15:07;1.20;;;1.10;;
66970;SDS011;53901;51.466;-2.588;2023-11-21T05:17:36;1.50;;;1.17;;
66970;SDS011;53901;51.466;-2.588;2023-11-21T05:20:02;1.00;;;0.90;;
66970;SDS011;53901;51.466;-2.588;2023-11-21T05:22:29;1.90;;;1.00;;
66970;SDS011;53901;51.466;-2.588;2023-11-21T05:24:55;2.53;;;1.10;;
66970;SDS011;53901;51.466;-2.588;2023-11-21T05:27:20;1.75;;;1.05;;
66970;SDS011;53901;51.466;-2.588;2023-11-21T05:29:46;1.33;;;0.93;;
66970;SDS011;53901;51.466;-2.588;2023-11-21T05:32:11;1.45;;;0.90;;
66970;SDS011;53901;51.466;-2.588;2023-11-21T05:34:36;1.13;;;0.82;;
66970;SDS011;53901;51.466;-2.588;2023-11-21T05:37:02;2.97;;;0.95;;
66970;SDS011;53901;51.466;-2.588;2023-11-21T05:39:27;0.95;;;0.85;;
66970;SDS011;53901;51.466;-2.588;2023-11-21T05:41:53;1.98;;;0.90;;
66970;SDS011;53901;51.466;-2.588;2023-11-21T05:44:18;2.67;;;0.80;;
66970;SDS011;53901;51.466;-2.588;2023-11-21T05:46:44;1.48;;;0.80;;
66970;SDS011;53901;51.466;-2.588;2023-11-21T05:49:09;0.90;;;0.73;;
66970;SDS011;53901;51.466;-2.588;2023-11-21T05:51:35;0.80;;;0.70;;
66970;SDS011;53901;51.466;-2.588;2023-11-21T05:54:01;1.58;;;0.90;;
66970;SDS011;53901;51.466;-2.588;2023-11-21T05:56:26;0.80;;;0.73;;
66970;SDS011;53901;51.466;-2.588;2023-11-21T05:58:52;1.00;;;0.73;;
66970;SDS011;53901;51.466;-2.588;2023-11-21T06:01:17;1.38;;;0.90;;
66970;SDS011;53901;51.466;-2.588;2023-11-21T06:03:43;3.22;;;0.80;;
66970;SDS011;53901;51.466;-2.588;2023-11-21T06:06:08;6.18;;;1.65;;
66970;SDS011;53901;51.466;-2.588;2023-11-21T06:08:33;1.88;;;0.80;;
66970;SDS011;53901;51.466;-2.588;2023-11-21T06:10:59;2.05;;;0.70;;
66970;SDS011;53901;51.466;-2.588;2023-11-21T06:13:24;1.77;;;0.70;;
66970;SDS011;53901;51.466;-2.588;2023-11-21T06:15:52;1.48;;;0.80;;
66970;SDS011;53901;51.466;-2.588;2023-11-21T06:18:18;2.25;;;0.90;;
66970;SDS011;53901;51.466;-2.588;2023-11-21T06:20:46;0.93;;;0.57;;
66970;SDS011;53901;51.466;-2.588;2023-11-21T06:23:11;1.65;;;0.80;;
66970;SDS011;53901;51.466;-2.588;2023-11-21T06:25:37;3.92;;;0.95;;
66970;SDS011;53901;51.466;-2.588;2023-11-21T06:28:03;1.45;;;0.90;;
66970;SDS011;53901;51.466;-2.588;2023-11-21T06:30:28;2.40;;;0.95;;
66970;SDS011;53901;51.466;-2.588;2023-11-21T06:32:54;3.22;;;0.98;;
66970;SDS011;53901;51.466;-2.588;2023-11-21T06:35:20;4.15;;;0.80;;
66970;SDS011;53901;51.466;-2.588;2023-11-21T06:37:45;2.35;;;0.90;;
66970;SDS011;53901;51.466;-2.588;2023-11-21T06:40:12;1.75;;;0.77;;
66970;SDS011;53901;51.466;-2.588;2023-11-21T06:42:40;4.20;;;1.42;;
66970;SDS011;53901;51.466;-2.588;2023-11-21T06:45:06;1.70;;;0.85;;
66970;SDS011;53901;51.466;-2.588;2023-11-21T06:47:32;2.30;;;0.70;;
66970;SDS011;53901;51.466;-2.588;2023-11-21T06:49:58;1.77;;;0.80;;
66970;SDS011;53901;51.466;-2.588;2023-11-21T06:52:23;1.63;;;0.80;;
66970;SDS011;53901;51.466;-2.588;2023-11-21T06:54:49;1.60;;;0.80;;
66970;SDS011;53901;51.466;-2.588;2023-11-21T06:57:15;1.52;;;0.82;;
66970;SDS011;53901;51.466;-2.588;2023-11-21T06:59:40;2.08;;;1.08;;
66970;SDS011;53901;51.466;-2.588;2023-11-21T07:02:05;2.55;;;0.70;;
66970;SDS011;53901;51.466;-2.588;2023-11-21T07:04:34;2.03;;;0.68;;
66970;SDS011;53901;51.466;-2.588;2023-11-21T07:07:02;1.73;;;0.85;;
66970;SDS011;53901;51.466;-2.588;2023-11-21T07:09:28;2.67;;;0.70;;
66970;SDS011;53901;51.466;-2.588;2023-11-21T07:11:54;1.90;;;0.90;;
66970;SDS011;53901;51.466;-2.588;2023-11-21T07:14:20;1.58;;;0.70;;
66970;SDS011;53901;51.466;-2.588;2023-11-21T07:16:46;2.33;;;0.77;;
66970;SDS011;53901;51.466;-2.588;2023-11-21T07:19:12;0.68;;;0.60;;
66970;SDS011;53901;51.466;-2.588;2023-11-21T07:21:37;0.82;;;0.60;;
66970;SDS011;53901;51.466;-2.588;2023-11-21T07:24:04;1.98;;;0.73;;
66970;SDS011;53901;51.466;-2.588;2023-11-21T07:26:34;1.23;;;0.70;;
66970;SDS011;53901;51.466;-2.588;2023-11-21T07:29:00;1.35;;;0.70;;
66970;SDS011;53901;51.466;-2.588;2023-11-21T07:31:26;1.10;;;0.70;;
66970;SDS011;53901;51.466;-2.588;2023-11-21T07:33:52;0.70;;;0.50;;
66970;SDS011;53901;51.466;-2.588;2023-11-21T07:36:18;0.60;;;0.50;;
66970;SDS011;53901;51.466;-2.588;2023-11-21T07:38:45;0.90;;;0.50;;
66970;SDS011;53901;51.466;-2.588;2023-11-21T07:41:11;1.15;;;0.60;;
66970;SDS011;53901;51.466;-2.588;2023-11-21T07:43:36;3.65;;;0.40;;
66970;SDS011;53901;51.466;-2.588;2023-11-21T07:46:02;1.65;;;0.50;;
66970;SDS011;53901;51.466;-2.588;2023-11-21T07:48:31;1.27;;;0.60;;
66970;SDS011;53901;51.466;-2.588;2023-11-21T07:50:57;4.50;;;2.13;;
66970;SDS011;53901;51.466;-2.588;2023-11-21T07:53:23;0.88;;;0.50;;
66970;SDS011;53901;51.466;-2.588;2023-11-21T07:55:54;0.75;;;0.45;;
66970;SDS011;53901;51.466;-2.588;2023-11-21T07:58:20;0.73;;;0.60;;
66970;SDS011;53901;51.466;-2.588;2023-11-21T08:00:46;1.00;;;0.47;;
66970;SDS011;53901;51.466;-2.588;2023-11-21T08:03:13;1.13;;;0.50;;
66970;SDS011;53901;51.466;-2.588;2023-11-21T08:05:38;1.90;;;0.60;;
66970;SDS011;53901;51.466;-2.588;2023-11-21T08:08:04;1.70;;;0.52;;
66970;SDS011;53901;51.466;-2.588;2023-11-21T08:10:29;1.27;;;0.38;;
66970;SDS011;53901;51.466;-2.588;2023-11-21T08:12:55;0.70;;;0.40;;
66970;SDS011;53901;51.466;-2.588;2023-11-21T08:15:20;0.98;;;0.43;;
66970;SDS011;53901;51.466;-2.588;2023-11-21T08:17:46;0.77;;;0.50;;
66970;SDS011;53901;51.466;-2.588;2023-11-21T08:20:12;1.48;;;0.60;;
66970;SDS011;53901;51.466;-2.588;2023-11-21T08:22:37;0.77;;;0.50;;
66970;SDS011;53901;51.466;-2.588;2023-11-21T08:25:06;1.05;;;0.55;;
66970;SDS011;53901;51.466;-2.588;2023-11-21T08:27:33;0.85;;;0.60;;
66970;SDS011;53901;51.466;-2.588;2023-11-21T08:29:59;2.17;;;0.63;;
66970;SDS011;53901;51.466;-2.588;2023-11-21T08:32:25;1.95;;;0.65;;
66970;SDS011;53901;51.466;-2.588;2023-11-21T08:34:50;2.35;;;0.55;;
66970;SDS011;53901;51.466;-2.588;2023-11-21T08:37:16;2.90;;;0.93;;
66970;SDS011;53901;51.466;-2.588;2023-11-21T08:39:43;3.58;;;0.60;;
66970;SDS011;53901;51.466;-2.588;2023-11-21T08:42:09;1.42;;;0.70;;
66970;SDS011;53901;51.466;-2.588;2023-11-21T08:44:34;1.35;;;0.60;;
66970;SDS011;53901;51.466;-2.588;2023-11-21T08:47:00;1.33;;;0.80;;
66970;SDS011;53901;51.466;-2.588;2023-11-21T08:49:25;1.17;;;0.57;;
66970;SDS011;53901;51.466;-2.588;2023-11-21T08:51:52;1.15;;;0.50;;
66970;SDS011;53901;51.466;-2.588;2023-11-21T08:54:20;2.17;;;0.80;;
66970;SDS011;53901;51.466;-2.588;2023-11-21T08:56:46;0.95;;;0.50;;
66970;SDS011;53901;51.466;-2.588;2023-11-21T08:59:11;1.20;;;0.50;;
66970;SDS011;53901;51.466;-2.588;2023-11-21T09:01:39;0.75;;;0.52;;
66970;SDS011;53901;51.466;-2.588;2023-11-21T09:04:05;2.78;;;0.70;;
66970;SDS011;53901;51.466;-2.588;2023-11-21T09:06:31;0.95;;;0.43;;
66970;SDS011;53901;51.466;-2.588;2023-11-21T09:08:56;1.92;;;0.50;;
66970;SDS011;53901;51.466;-2.588;2023-11-21T09:11:22;4.18;;;0.70;;
66970;SDS011;53901;51.466;-2.588;2023-11-21T09:13:48;0.75;;;0.40;;
66970;SDS011;53901;51.466;-2.588;2023-11-21T09:16:14;2.38;;;0.70;;
66970;SDS011;53901;51.466;-2.588;2023-11-21T09:18:40;1.23;;;0.50;;
66970;SDS011;53901;51.466;-2.588;2023-11-21T09:21:06;0.93;;;0.50;;
66970;SDS011;53901;51.466;-2.588;2023-11-21T09:23:31;4.72;;;0.60;;
66970;SDS011;53901;51.466;-2.588;2023-11-21T09:25:57;3.05;;;0.60;;
66970;SDS011;53901;51.466;-2.588;2023-11-21T09:28:24;1.15;;;0.70;;
66970;SDS011;53901;51.466;-2.588;2023-11-21T09:30:51;5.72;;;0.98;;
66970;SDS011;53901;51.466;-2.588;2023-11-21T09:33:17;2.10;;;0.70;;
66970;SDS011;53901;51.466;-2.588;2023-11-21T09:35:42;2.90;;;0.70;;
66970;SDS011;53901;51.466;-2.588;2023-11-21T09:38:09;1.73;;;0.50;;
66970;SDS011;53901;51.466;-2.588;2023-11-21T09:40:36;5.03;;;0.80;;
66970;SDS011;53901;51.466;-2.588;2023-11-21T09:43:06;1.02;;;0.60;;
66970;SDS011;53901;51.466;-2.588;2023-11-21T09:45:35;2.45;;;0.80;;
66970;SDS011;53901;51.466;-2.588;2023-11-21T09:48:01;1.73;;;0.90;;
66970;SDS011;53901;51.466;-2.588;2023-11-21T09:50:27;1.67;;;0.85;;
66970;SDS011;53901;51.466;-2.588;2023-11-21T09:55:52;3.10;;;0.80;;
66970;SDS011;53901;51.466;-2.588;2023-11-21T09:58:18;1.67;;;0.77;;
66970;SDS011;53901;51.466;-2.588;2023-11-21T10:00:45;2.80;;;0.60;;
66970;SDS011;53901;51.466;-2.588;2023-11-21T10:03:12;2.63;;;1.00;;
66970;SDS011;53901;51.466;-2.588;2023-11-21T10:05:38;3.20;;;0.85;;
66970;SDS011;53901;51.466;-2.588;2023-11-21T10:08:07;3.55;;;0.80;;
66970;SDS011;53901;51.466;-2.588;2023-11-21T10:10:35;5.03;;;0.90;;
66970;SDS011;53901;51.466;-2.588;2023-11-21T10:13:09;1.17;;;0.70;;
66970;SDS011;53901;51.466;-2.588;2023-11-21T10:15:37;1.90;;;0.90;;
66970;SDS011;53901;51.466;-2.588;2023-11-21T10:18:03;5.28;;;0.90;;
66970;SDS011;53901;51.466;-2.588;2023-11-21T10:20:30;2.88;;;0.90;;
66970;SDS011;53901;51.466;-2.588;2023-11-21T10:22:56;3.05;;;0.70;;
66970;SDS011;53901;51.466;-2.588;2023-11-21T10:25:25;2.63;;;1.20;;
66970;SDS011;53901;51.466;-2.588;2023-11-21T10:27:58;3.20;;;1.02;;
66970;SDS011;53901;51.466;-2.588;2023-11-21T10:30:36;3.67;;;1.00;;
66970;SDS011;53901;51.466;-2.588;2023-11-21T10:33:06;1.08;;;0.80;;
66970;SDS011;53901;51.466;-2.588;2023-11-21T10:35:39;2.00;;;1.20;;
66970;SDS011;53901;51.466;-2.588;2023-11-21T10:38:07;7.90;;;2.78;;
66970;SDS011;53901;51.466;-2.588;2023-11-21T10:40:37;8.52;;;3.63;;
66970;SDS011;53901;51.466;-2.588;2023-11-21T10:43:07;8.45;;;4.00;;
66970;SDS011;53901;51.466;-2.588;2023-11-21T10:45:38;6.82;;;2.45;;
66970;SDS011;53901;51.466;-2.588;2023-11-21T10:48:05;2.67;;;1.30;;
66970;SDS011;53901;51.466;-2.588;2023-11-21T10:50:35;2.30;;;1.40;;
66970;SDS011;53901;51.466;-2.588;2023-11-21T10:53:04;2.97;;;1.10;;
66970;SDS011;53901;51.466;-2.588;2023-11-21T10:55:30;4.55;;;1.40;;
66970;SDS011;53901;51.466;-2.588;2023-11-21T10:58:00;3.78;;;1.20;;
66970;SDS011;53901;51.466;-2.588;2023-11-21T11:00:28;2.13;;;1.17;;
66970;SDS011;53901;51.466;-2.588;2023-11-21T11:02:54;5.72;;;1.50;;
66970;SDS011;53901;51.466;-2.588;2023-11-21T11:05:20;6.55;;;1.60;;
66970;SDS011;53901;51.466;-2.588;2023-11-21T11:07:50;4.18;;;1.63;;
66970;SDS011;53901;51.466;-2.588;2023-11-21T11:10:20;7.55;;;1.58;;
66970;SDS011;53901;51.466;-2.588;2023-11-21T11:12:47;3.88;;;1.40;;
66970;SDS011;53901;51.466;-2.588;2023-11-21T11:15:13;3.53;;;1.48;;
66970;SDS011;53901;51.466;-2.588;2023-11-21T11:17:41;11.07;;;1.77;;
66970;SDS011;53901;51.466;-2.588;2023-11-21T11:20:07;6.60;;;1.60;;
66970;SDS011;53901;51.466;-2.588;2023-11-21T11:25:45;4.70;;;1.52;;
66970;SDS011;53901;51.466;-2.588;2023-11-21T11:28:22;4.95;;;1.40;;
66970;SDS011;53901;51.466;-2.588;2023-11-21T11:31:04;4.55;;;2.05;;
66970;SDS011;53901;51.466;-2.588;2023-11-21T11:33:52;6.32;;;1.73;;
66970;SDS011;53901;51.466;-2.588;2023-11-21T11:36:22;4.82;;;1.45;;
66970;SDS011;53901;51.466;-2.588;2023-11-21T11:38:51;2.58;;;1.40;;
66970;SDS011;53901;51.466;-2.588;2023-11-21T11:41:26;6.30;;;1.75;;
66970;SDS011;53901;51.466;-2.588;2023-11-21T11:43:54;7.55;;;2.00;;
66970;SDS011;53901;51.466;-2.588;2023-11-21T11:46:20;12.30;;;2.83;;
66970;SDS011;53901;51.466;-2.588;2023-11-21T11:48:46;4.28;;;1.70;;
66970;SDS011;53901;51.466;-2.588;2023-11-21T11:51:14;3.65;;;1.83;;
66970;SDS011;53901;51.466;-2.588;2023-11-21T11:53:42;4.70;;;1.90;;
66970;SDS011;53901;51.466;-2.588;2023-11-21T11:58:56;4.38;;;1.58;;
66970;SDS011;53901;51.466;-2.588;2023-11-21T12:01:24;7.57;;;1.90;;
66970;SDS011;53901;51.466;-2.588;2023-11-21T12:06:56;4.25;;;2.35;;
66970;SDS011;53901;51.466;-2.588;2023-11-21T12:09:22;2.92;;;1.73;;
66970;SDS011;53901;51.466;-2.588;2023-11-21T12:11:48;2.83;;;1.58;;
66970;SDS011;53901;51.466;-2.588;2023-11-21T12:14:15;6.72;;;1.73;;
66970;SDS011;53901;51.466;-2.588;2023-11-21T12:16:41;4.75;;;1.60;;
66970;SDS011;53901;51.466;-2.588;2023-11-21T12:19:07;4.57;;;2.08;;
66970;SDS011;53901;51.466;-2.588;2023-11-21T12:21:33;6.10;;;1.63;;
66970;SDS011;53901;51.466;-2.588;2023-11-21T12:23:59;2.95;;;1.65;;
66970;SDS011;53901;51.466;-2.588;2023-11-21T12:26:25;2.65;;;1.50;;
66970;SDS011;53901;51.466;-2.588;2023-11-21T12:28:53;5.40;;;1.85;;
66970;SDS011;53901;51.466;-2.588;2023-11-21T12:31:22;7.40;;;1.98;;
66970;SDS011;53901;51.466;-2.588;2023-11-21T12:33:48;6.25;;;1.88;;
66970;SDS011;53901;51.466;-2.588;2023-11-21T12:36:13;6.20;;;1.80;;
66970;SDS011;53901;51.466;-2.588;2023-11-21T12:38:39;5.38;;;1.83;;
66970;SDS011;53901;51.466;-2.588;2023-11-21T12:41:05;8.82;;;1.88;;
66970;SDS011;53901;51.466;-2.588;2023-11-21T12:43:31;4.10;;;1.50;;
66970;SDS011;53901;51.466;-2.588;2023-11-21T12:48:32;5.32;;;1.92;;
66970;SDS011;53901;51.466;-2.588;2023-11-21T12:50:58;7.50;;;2.20;;
66970;SDS011;53901;51.466;-2.588;2023-11-21T12:53:25;6.35;;;1.60;;
66970;SDS011;53901;51.466;-2.588;2023-11-21T12:55:51;4.90;;;1.88;;
66970;SDS011;53901;51.466;-2.588;2023-11-21T12:58:16;6.45;;;2.22;;
66970;SDS011;53901;51.466;-2.588;2023-11-21T13:00:47;6.38;;;1.83;;
66970;SDS011;53901;51.466;-2.588;2023-11-21T13:03:14;3.90;;;1.88;;
66970;SDS011;53901;51.466;-2.588;2023-11-21T13:05:48;3.83;;;2.30;;
66970;SDS011;53901;51.466;-2.588;2023-11-21T13:08:18;7.18;;;1.88;;
66970;SDS011;53901;51.466;-2.588;2023-11-21T13:10:48;8.63;;;2.83;;
66970;SDS011;53901;51.466;-2.588;2023-11-21T13:13:15;5.47;;;1.73;;
66970;SDS011;53901;51.466;-2.588;2023-11-21T13:15:49;2.83;;;1.40;;
66970;SDS011;53901;51.466;-2.588;2023-11-21T13:18:16;4.28;;;1.77;;
66970;SDS011;53901;51.466;-2.588;2023-11-21T13:20:42;6.53;;;1.92;;
66970;SDS011;53901;51.466;-2.588;2023-11-21T13:23:11;4.15;;;1.60;;
66970;SDS011;53901;51.466;-2.588;2023-11-21T13:25:40;6.18;;;1.83;;
66970;SDS011;53901;51.466;-2.588;2023-11-21T13:28:10;4.82;;;1.40;;
66970;SDS011;53901;51.466;-2.588;2023-11-21T13:30:36;3.20;;;1.30;;
66970;SDS011;53901;51.466;-2.588;2023-11-21T13:33:04;6.28;;;2.35;;
66970;SDS011;53901;51.466;-2.588;2023-11-21T13:35:34;4.07;;;1.60;;
66970;SDS011;53901;51.466;-2.588;2023-11-21T13:38:07;3.20;;;1.45;;
66970;SDS011;53901;51.466;-2.588;2023-11-21T13:40:34;3.30;;;1.23;;
66970;SDS011;53901;51.466;-2.588;2023-11-21T13:43:07;3.30;;;1.92;;
66970;SDS011;53901;51.466;-2.588;2023-11-21T13:45:37;6.18;;;1.55;;
66970;SDS011;53901;51.466;-2.588;2023-11-21T13:48:04;4.25;;;1.52;;
66970;SDS011;53901;51.466;-2.588;2023-11-21T13:50:34;4.00;;;1.20;;
66970;SDS011;53901;51.466;-2.588;2023-11-21T13:53:00;6.57;;;2.38;;
66970;SDS011;53901;51.466;-2.588;2023-11-21T13:55:33;5.03;;;1.85;;
66970;SDS011;53901;51.466;-2.588;2023-11-21T13:58:00;2.85;;;1.50;;
66970;SDS011;53901;51.466;-2.588;2023-11-21T14:00:26;8.77;;;2.58;;
66970;SDS011;53901;51.466;-2.588;2023-11-21T14:03:10;3.50;;;1.63;;
66970;SDS011;53901;51.466;-2.588;2023-11-21T14:05:45;8.93;;;2.10;;
66970;SDS011;53901;51.466;-2.588;2023-11-21T14:08:19;1.80;;;1.20;;
66970;SDS011;53901;51.466;-2.588;2023-11-21T14:10:46;2.72;;;0.90;;
66970;SDS011;53901;51.466;-2.588;2023-11-21T14:13:18;5.60;;;1.40;;
66970;SDS011;53901;51.466;-2.588;2023-11-21T14:15:48;8.88;;;1.40;;
66970;SDS011;53901;51.466;-2.588;2023-11-21T14:18:16;3.30;;;1.48;;
66970;SDS011;53901;51.466;-2.588;2023-11-21T14:20:42;8.38;;;4.85;;
66970;SDS011;53901;51.466;-2.588;2023-11-21T14:23:09;3.30;;;1.52;;
66970;SDS011;53901;51.466;-2.588;2023-11-21T14:25:35;3.70;;;1.35;;
66970;SDS011;53901;51.466;-2.588;2023-11-21T14:28:02;3.05;;;1.27;;
66970;SDS011;53901;51.466;-2.588;2023-11-21T14:30:31;4.55;;;1.40;;
66970;SDS011;53901;51.466;-2.588;2023-11-21T14:32:59;1.83;;;1.00;;
66970;SDS011;53901;51.466;-2.588;2023-11-21T14:35:26;5.78;;;2.03;;
66970;SDS011;53901;51.466;-2.588;2023-11-21T14:37:52;3.65;;;1.70;;
66970;SDS011;53901;51.466;-2.588;2023-11-21T14:40:17;7.53;;;1.92;;
66970;SDS011;53901;51.466;-2.588;2023-11-21T14:42:47;2.85;;;1.42;;
66970;SDS011;53901;51.466;-2.588;2023-11-21T14:45:13;4.65;;;2.08;;